This is the latest recevied weather packets stored in our database for station/object N7UV-WX. If no packets are shown the sender has not sent any weather packets the latest 10 day(s).
| Time | Temp. | Humidity | Pressure | Rain* | Wind** | Luminosity | Snow |
|---|---|---|---|---|---|---|---|
| 1777616739 | 23.89° C | 23% | 1006.5 hPa | 0 mm | - | 0 W/m² | - |
| 1777615519 | 24.44° C | 23% | 1006.3 hPa | 0 mm | - | 0 W/m² | - |
| 1777614319 | 24.44° C | 23% | 1006 hPa | 0 mm | - | 0 W/m² | - |
| 1777611319 | 25° C | 21% | 1005.1 hPa | 0 mm | - | 0 W/m² | - |
| 1777607119 | 28.33° C | 12% | 1003.5 hPa | 0 mm | - | 0 W/m² | - |
| 1777594520 | 30° C | 10% | 1002.3 hPa | 0 mm | - | 165 W/m² | - |
| 1777593319 | 30° C | 10% | 1002.4 hPa | 0 mm | - | 209 W/m² | - |
| 1777590959 | 30.56° C | 10% | 1002.7 hPa | 0 mm | - | 322 W/m² | - |
| 1777584954 | 30.56° C | 9% | 1004.6 hPa | 0 mm | - | 1007 W/m² | - |
| 1777583735 | 30.56° C | 10% | 1005.2 hPa | 0 mm | - | 1044 W/m² | - |
| 1777578934 | 29.44° C | 10% | 1006.1 hPa | 0 mm | - | 1065 W/m² | - |
| 1777571155 | 26.67° C | 15% | 1008.1 hPa | 0 mm | - | 935 W/m² | - |
| 1777569954 | 26.11° C | 15% | 1008.4 hPa | 0 mm | - | 893 W/m² | - |
| 1777568740 | 25.56° C | 17% | 1008.3 hPa | 0 mm | - | 842 W/m² | - |
| 1777568119 | 25.56° C | 18% | 1008.3 hPa | 0 mm | - | 814 W/m² | - |
| 1777563319 | 24.44° C | 19% | 1008.9 hPa | 0 mm | - | 564 W/m² | - |
| 1777562119 | 23.33° C | 19% | 1008.8 hPa | 0 mm | - | 491 W/m² | - |
| 1777559734 | 21.11° C | 20% | 1008.6 hPa | 0 mm | - | 39 W/m² | - |
| 1777559133 | 21.11° C | 20% | 1008.7 hPa | 0 mm | - | 35 W/m² | - |
| 1777558534 | 21.11° C | 20% | 1008.7 hPa | 0 mm | - | 33 W/m² | - |
| 1777556719 | 20.56° C | 20% | 1008.4 hPa | 0 mm | - | 26 W/m² | - |
| 1777551319 | 21.67° C | 18% | 1008.3 hPa | 0 mm | - | 0 W/m² | - |
| 1777549533 | 22.22° C | 17% | 1008.2 hPa | 0 mm | - | 0 W/m² | - |
| 1777545319 | 22.78° C | 15% | 1008.5 hPa | 0 mm | - | 0 W/m² | - |
| 1777539919 | 23.89° C | 15% | 1009.3 hPa | 0 mm | - | 0 W/m² | - |
* Rain latest hour (hover to see other rain measurements)
** Current wind speed in m/s (hover to see current wind gust speed)